sensor_id;sensor_type;location;lat;lon;timestamp;P1;durP1;ratioP1;P2;durP2;ratioP2
12814;SDS011;6472;52.328;13.070;2023-07-08T00:02:14;7.37;;;5.03;;
12814;SDS011;6472;52.328;13.070;2023-07-08T00:04:44;6.37;;;5.20;;
12814;SDS011;6472;52.328;13.070;2023-07-08T00:07:12;8.13;;;5.07;;
12814;SDS011;6472;52.328;13.070;2023-07-08T00:09:46;5.60;;;5.10;;
12814;SDS011;6472;52.328;13.070;2023-07-08T00:12:14;6.13;;;5.40;;
12814;SDS011;6472;52.328;13.070;2023-07-08T00:14:42;5.50;;;4.93;;
12814;SDS011;6472;52.328;13.070;2023-07-08T00:17:11;12.67;;;5.93;;
12814;SDS011;6472;52.328;13.070;2023-07-08T00:19:39;7.00;;;6.30;;
12814;SDS011;6472;52.328;13.070;2023-07-08T00:22:11;5.30;;;4.87;;
12814;SDS011;6472;52.328;13.070;2023-07-08T00:24:41;5.50;;;4.97;;
12814;SDS011;6472;52.328;13.070;2023-07-08T00:27:10;7.50;;;5.13;;
12814;SDS011;6472;52.328;13.070;2023-07-08T00:29:39;7.30;;;6.00;;
12814;SDS011;6472;52.328;13.070;2023-07-08T00:32:09;6.40;;;5.27;;
12814;SDS011;6472;52.328;13.070;2023-07-08T00:34:39;5.47;;;4.97;;
12814;SDS011;6472;52.328;13.070;2023-07-08T00:37:08;6.70;;;5.53;;
12814;SDS011;6472;52.328;13.070;2023-07-08T00:39:40;7.67;;;5.57;;
12814;SDS011;6472;52.328;13.070;2023-07-08T00:42:12;6.07;;;5.37;;
12814;SDS011;6472;52.328;13.070;2023-07-08T00:44:44;6.97;;;5.13;;
12814;SDS011;6472;52.328;13.070;2023-07-08T00:47:13;9.97;;;5.33;;
12814;SDS011;6472;52.328;13.070;2023-07-08T00:49:43;5.50;;;5.00;;
12814;SDS011;6472;52.328;13.070;2023-07-08T00:52:17;6.13;;;4.90;;
12814;SDS011;6472;52.328;13.070;2023-07-08T00:54:51;5.73;;;4.77;;
12814;SDS011;6472;52.328;13.070;2023-07-08T00:57:21;7.23;;;5.07;;
12814;SDS011;6472;52.328;13.070;2023-07-08T00:59:53;7.73;;;5.10;;
12814;SDS011;6472;52.328;13.070;2023-07-08T01:02:24;7.10;;;5.30;;
12814;SDS011;6472;52.328;13.070;2023-07-08T01:04:55;6.10;;;5.30;;
12814;SDS011;6472;52.328;13.070;2023-07-08T01:07:29;6.77;;;5.83;;
12814;SDS011;6472;52.328;13.070;2023-07-08T01:10:01;8.87;;;6.23;;
12814;SDS011;6472;52.328;13.070;2023-07-08T01:12:33;6.57;;;5.70;;
12814;SDS011;6472;52.328;13.070;2023-07-08T01:15:07;7.43;;;5.17;;
12814;SDS011;6472;52.328;13.070;2023-07-08T01:17:36;5.77;;;4.70;;
12814;SDS011;6472;52.328;13.070;2023-07-08T01:20:04;7.47;;;5.67;;
12814;SDS011;6472;52.328;13.070;2023-07-08T01:22:40;9.73;;;5.67;;
12814;SDS011;6472;52.328;13.070;2023-07-08T01:25:09;6.97;;;4.97;;
12814;SDS011;6472;52.328;13.070;2023-07-08T01:27:40;6.40;;;5.70;;
12814;SDS011;6472;52.328;13.070;2023-07-08T01:30:13;6.77;;;5.60;;
12814;SDS011;6472;52.328;13.070;2023-07-08T01:32:43;6.37;;;5.03;;
12814;SDS011;6472;52.328;13.070;2023-07-08T01:35:15;7.07;;;6.10;;
12814;SDS011;6472;52.328;13.070;2023-07-08T01:37:46;5.70;;;5.20;;
12814;SDS011;6472;52.328;13.070;2023-07-08T01:40:24;8.57;;;6.13;;
12814;SDS011;6472;52.328;13.070;2023-07-08T01:42:56;8.40;;;5.87;;
12814;SDS011;6472;52.328;13.070;2023-07-08T01:45:26;7.53;;;5.70;;
12814;SDS011;6472;52.328;13.070;2023-07-08T01:47:57;6.17;;;5.57;;
12814;SDS011;6472;52.328;13.070;2023-07-08T01:50:28;6.50;;;5.87;;
12814;SDS011;6472;52.328;13.070;2023-07-08T01:53:00;6.87;;;5.50;;
12814;SDS011;6472;52.328;13.070;2023-07-08T01:55:33;8.23;;;5.77;;
12814;SDS011;6472;52.328;13.070;2023-07-08T01:58:01;8.63;;;5.90;;
12814;SDS011;6472;52.328;13.070;2023-07-08T02:00:29;6.20;;;5.60;;
12814;SDS011;6472;52.328;13.070;2023-07-08T02:02:57;9.77;;;6.50;;
12814;SDS011;6472;52.328;13.070;2023-07-08T02:05:25;8.40;;;5.57;;
12814;SDS011;6472;52.328;13.070;2023-07-08T02:07:53;6.60;;;5.90;;
12814;SDS011;6472;52.328;13.070;2023-07-08T02:10:24;7.10;;;5.53;;
12814;SDS011;6472;52.328;13.070;2023-07-08T02:12:52;8.07;;;5.80;;
12814;SDS011;6472;52.328;13.070;2023-07-08T02:15:20;6.03;;;5.27;;
12814;SDS011;6472;52.328;13.070;2023-07-08T02:17:48;7.53;;;5.30;;
12814;SDS011;6472;52.328;13.070;2023-07-08T02:20:16;7.57;;;6.07;;
12814;SDS011;6472;52.328;13.070;2023-07-08T02:22:44;6.70;;;6.00;;
12814;SDS011;6472;52.328;13.070;2023-07-08T02:25:13;6.27;;;5.67;;
12814;SDS011;6472;52.328;13.070;2023-07-08T02:27:42;7.73;;;6.13;;
12814;SDS011;6472;52.328;13.070;2023-07-08T02:30:10;6.27;;;5.63;;
12814;SDS011;6472;52.328;13.070;2023-07-08T02:32:38;7.03;;;5.90;;
12814;SDS011;6472;52.328;13.070;2023-07-08T02:35:07;8.27;;;6.07;;
12814;SDS011;6472;52.328;13.070;2023-07-08T02:37:35;6.73;;;6.03;;
12814;SDS011;6472;52.328;13.070;2023-07-08T02:40:04;6.10;;;5.50;;
12814;SDS011;6472;52.328;13.070;2023-07-08T02:42:32;8.40;;;6.33;;
12814;SDS011;6472;52.328;13.070;2023-07-08T02:45:02;7.13;;;5.60;;
12814;SDS011;6472;52.328;13.070;2023-07-08T02:47:30;7.40;;;5.57;;
12814;SDS011;6472;52.328;13.070;2023-07-08T02:49:58;7.00;;;6.30;;
12814;SDS011;6472;52.328;13.070;2023-07-08T02:52:26;8.40;;;5.97;;
12814;SDS011;6472;52.328;13.070;2023-07-08T02:54:54;6.93;;;6.23;;
12814;SDS011;6472;52.328;13.070;2023-07-08T02:57:22;9.00;;;6.33;;
12814;SDS011;6472;52.328;13.070;2023-07-08T02:59:50;8.90;;;6.43;;
12814;SDS011;6472;52.328;13.070;2023-07-08T03:02:20;8.63;;;6.30;;
12814;SDS011;6472;52.328;13.070;2023-07-08T03:04:49;6.57;;;5.97;;
12814;SDS011;6472;52.328;13.070;2023-07-08T03:07:17;7.20;;;5.80;;
12814;SDS011;6472;52.328;13.070;2023-07-08T03:09:45;6.20;;;5.60;;
12814;SDS011;6472;52.328;13.070;2023-07-08T03:12:13;6.47;;;5.70;;
12814;SDS011;6472;52.328;13.070;2023-07-08T03:14:41;7.27;;;5.73;;
12814;SDS011;6472;52.328;13.070;2023-07-08T03:17:09;6.27;;;5.67;;
12814;SDS011;6472;52.328;13.070;2023-07-08T03:19:38;5.77;;;5.23;;
12814;SDS011;6472;52.328;13.070;2023-07-08T03:22:07;6.50;;;5.90;;
12814;SDS011;6472;52.328;13.070;2023-07-08T03:24:35;7.03;;;6.33;;
12814;SDS011;6472;52.328;13.070;2023-07-08T03:27:03;6.53;;;5.93;;
12814;SDS011;6472;52.328;13.070;2023-07-08T03:29:34;8.87;;;6.43;;
12814;SDS011;6472;52.328;13.070;2023-07-08T03:32:02;7.20;;;6.40;;
12814;SDS011;6472;52.328;13.070;2023-07-08T03:34:30;5.83;;;5.33;;
12814;SDS011;6472;52.328;13.070;2023-07-08T03:36:59;6.57;;;5.93;;
12814;SDS011;6472;52.328;13.070;2023-07-08T03:39:27;7.17;;;6.07;;
12814;SDS011;6472;52.328;13.070;2023-07-08T03:41:57;8.40;;;5.80;;
12814;SDS011;6472;52.328;13.070;2023-07-08T03:44:26;8.53;;;5.73;;
12814;SDS011;6472;52.328;13.070;2023-07-08T03:46:54;8.70;;;6.50;;
12814;SDS011;6472;52.328;13.070;2023-07-08T03:49:22;7.00;;;5.90;;
12814;SDS011;6472;52.328;13.070;2023-07-08T03:51:51;7.07;;;6.10;;
12814;SDS011;6472;52.328;13.070;2023-07-08T03:54:22;6.23;;;5.63;;
12814;SDS011;6472;52.328;13.070;2023-07-08T03:56:51;6.97;;;6.27;;
12814;SDS011;6472;52.328;13.070;2023-07-08T03:59:20;8.50;;;6.70;;
12814;SDS011;6472;52.328;13.070;2023-07-08T04:01:48;8.10;;;6.40;;
12814;SDS011;6472;52.328;13.070;2023-07-08T04:04:16;6.67;;;5.80;;
12814;SDS011;6472;52.328;13.070;2023-07-08T04:06:44;6.60;;;5.83;;
12814;SDS011;6472;52.328;13.070;2023-07-08T04:09:12;6.10;;;5.50;;
12814;SDS011;6472;52.328;13.070;2023-07-08T04:11:42;8.00;;;6.07;;
12814;SDS011;6472;52.328;13.070;2023-07-08T04:14:10;8.20;;;5.80;;
12814;SDS011;6472;52.328;13.070;2023-07-08T04:16:42;7.13;;;5.53;;
12814;SDS011;6472;52.328;13.070;2023-07-08T04:19:15;6.37;;;5.70;;
12814;SDS011;6472;52.328;13.070;2023-07-08T04:21:46;7.00;;;5.87;;
12814;SDS011;6472;52.328;13.070;2023-07-08T04:24:15;7.13;;;6.43;;
12814;SDS011;6472;52.328;13.070;2023-07-08T04:26:45;6.50;;;5.90;;
12814;SDS011;6472;52.328;13.070;2023-07-08T04:29:15;8.03;;;6.17;;
12814;SDS011;6472;52.328;13.070;2023-07-08T04:31:45;7.50;;;6.80;;
12814;SDS011;6472;52.328;13.070;2023-07-08T04:34:13;9.27;;;5.30;;
12814;SDS011;6472;52.328;13.070;2023-07-08T04:36:42;7.13;;;6.07;;
12814;SDS011;6472;52.328;13.070;2023-07-08T04:39:10;7.40;;;6.23;;
12814;SDS011;6472;52.328;13.070;2023-07-08T04:41:40;6.27;;;5.67;;
12814;SDS011;6472;52.328;13.070;2023-07-08T04:44:12;6.97;;;5.53;;
12814;SDS011;6472;52.328;13.070;2023-07-08T04:46:41;10.47;;;5.60;;
12814;SDS011;6472;52.328;13.070;2023-07-08T04:49:12;6.77;;;5.77;;
12814;SDS011;6472;52.328;13.070;2023-07-08T04:51:40;7.13;;;5.80;;
12814;SDS011;6472;52.328;13.070;2023-07-08T04:54:08;8.48;;;6.13;;
12814;SDS011;6472;52.328;13.070;2023-07-08T04:56:37;6.38;;;5.78;;
12814;SDS011;6472;52.328;13.070;2023-07-08T04:59:07;6.20;;;5.53;;
12814;SDS011;6472;52.328;13.070;2023-07-08T05:01:38;5.63;;;5.13;;
12814;SDS011;6472;52.328;13.070;2023-07-08T05:04:06;7.15;;;5.57;;
12814;SDS011;6472;52.328;13.070;2023-07-08T05:06:36;6.28;;;5.78;;
12814;SDS011;6472;52.328;13.070;2023-07-08T05:09:04;6.35;;;5.47;;
12814;SDS011;6472;52.328;13.070;2023-07-08T05:11:32;5.20;;;4.70;;
12814;SDS011;6472;52.328;13.070;2023-07-08T05:14:01;7.65;;;5.53;;
12814;SDS011;6472;52.328;13.070;2023-07-08T05:16:32;6.60;;;4.78;;
12814;SDS011;6472;52.328;13.070;2023-07-08T05:19:03;5.38;;;4.70;;
12814;SDS011;6472;52.328;13.070;2023-07-08T05:21:31;6.07;;;4.75;;
12814;SDS011;6472;52.328;13.070;2023-07-08T05:24:00;5.38;;;4.53;;
12814;SDS011;6472;52.328;13.070;2023-07-08T05:26:28;6.40;;;4.57;;
12814;SDS011;6472;52.328;13.070;2023-07-08T05:28:56;5.03;;;4.35;;
12814;SDS011;6472;52.328;13.070;2023-07-08T05:31:24;4.95;;;4.53;;
12814;SDS011;6472;52.328;13.070;2023-07-08T05:34:12;5.45;;;4.85;;
12814;SDS011;6472;52.328;13.070;2023-07-08T05:36:41;5.25;;;4.75;;
12814;SDS011;6472;52.328;13.070;2023-07-08T05:39:09;5.03;;;4.60;;
12814;SDS011;6472;52.328;13.070;2023-07-08T05:41:37;5.00;;;4.50;;
12814;SDS011;6472;52.328;13.070;2023-07-08T05:44:05;5.10;;;4.68;;
12814;SDS011;6472;52.328;13.070;2023-07-08T05:46:33;4.50;;;4.10;;
12814;SDS011;6472;52.328;13.070;2023-07-08T05:49:01;4.43;;;4.13;;
12814;SDS011;6472;52.328;13.070;2023-07-08T05:51:30;5.53;;;4.03;;
12814;SDS011;6472;52.328;13.070;2023-07-08T05:53:58;5.10;;;4.30;;
12814;SDS011;6472;52.328;13.070;2023-07-08T05:56:26;4.97;;;4.13;;
12814;SDS011;6472;52.328;13.070;2023-07-08T05:58:54;3.83;;;3.50;;
12814;SDS011;6472;52.328;13.070;2023-07-08T06:01:22;6.65;;;4.20;;
12814;SDS011;6472;52.328;13.070;2023-07-08T06:03:51;4.28;;;3.88;;
12814;SDS011;6472;52.328;13.070;2023-07-08T06:06:19;4.60;;;4.20;;
12814;SDS011;6472;52.328;13.070;2023-07-08T06:08:49;4.10;;;3.70;;
12814;SDS011;6472;52.328;13.070;2023-07-08T06:11:17;4.93;;;4.53;;
12814;SDS011;6472;52.328;13.070;2023-07-08T06:13:45;4.93;;;4.13;;
12814;SDS011;6472;52.328;13.070;2023-07-08T06:16:13;4.43;;;3.90;;
12814;SDS011;6472;52.328;13.070;2023-07-08T06:18:45;3.83;;;3.53;;
12814;SDS011;6472;52.328;13.070;2023-07-08T06:21:13;4.40;;;4.00;;
12814;SDS011;6472;52.328;13.070;2023-07-08T06:23:41;4.65;;;4.05;;
12814;SDS011;6472;52.328;13.070;2023-07-08T06:26:10;4.32;;;3.90;;
12814;SDS011;6472;52.328;13.070;2023-07-08T06:28:38;3.88;;;3.58;;
12814;SDS011;6472;52.328;13.070;2023-07-08T06:31:06;4.07;;;3.67;;
12814;SDS011;6472;52.328;13.070;2023-07-08T06:33:34;4.40;;;3.90;;
12814;SDS011;6472;52.328;13.070;2023-07-08T06:36:02;3.65;;;3.33;;
12814;SDS011;6472;52.328;13.070;2023-07-08T06:38:30;3.80;;;3.50;;
12814;SDS011;6472;52.328;13.070;2023-07-08T06:40:58;3.38;;;3.08;;
12814;SDS011;6472;52.328;13.070;2023-07-08T06:43:28;4.22;;;3.30;;
12814;SDS011;6472;52.328;13.070;2023-07-08T06:45:56;6.57;;;3.83;;
12814;SDS011;6472;52.328;13.070;2023-07-08T06:48:24;4.07;;;3.53;;
12814;SDS011;6472;52.328;13.070;2023-07-08T06:50:52;3.78;;;3.35;;
12814;SDS011;6472;52.328;13.070;2023-07-08T06:53:20;3.67;;;3.20;;
12814;SDS011;6472;52.328;13.070;2023-07-08T06:55:48;5.50;;;3.25;;
12814;SDS011;6472;52.328;13.070;2023-07-08T06:58:16;3.95;;;3.50;;
12814;SDS011;6472;52.328;13.070;2023-07-08T07:00:46;4.45;;;3.25;;
12814;SDS011;6472;52.328;13.070;2023-07-08T07:03:13;4.03;;;3.10;;
12814;SDS011;6472;52.328;13.070;2023-07-08T07:05:42;4.03;;;3.63;;
12814;SDS011;6472;52.328;13.070;2023-07-08T07:08:11;3.28;;;3.05;;
12814;SDS011;6472;52.328;13.070;2023-07-08T07:10:39;4.05;;;3.50;;
12814;SDS011;6472;52.328;13.070;2023-07-08T07:13:07;3.80;;;3.50;;
12814;SDS011;6472;52.328;13.070;2023-07-08T07:15:35;3.40;;;3.10;;
12814;SDS011;6472;52.328;13.070;2023-07-08T07:18:05;3.05;;;2.75;;
12814;SDS011;6472;52.328;13.070;2023-07-08T07:20:33;3.30;;;3.10;;
12814;SDS011;6472;52.328;13.070;2023-07-08T07:23:03;4.05;;;3.65;;
12814;SDS011;6472;52.328;13.070;2023-07-08T07:25:31;5.93;;;4.00;;
12814;SDS011;6472;52.328;13.070;2023-07-08T07:27:59;3.53;;;3.03;;
12814;SDS011;6472;52.328;13.070;2023-07-08T07:30:27;2.80;;;2.60;;
12814;SDS011;6472;52.328;13.070;2023-07-08T07:32:58;5.35;;;3.28;;
12814;SDS011;6472;52.328;13.070;2023-07-08T07:35:29;3.08;;;2.60;;
12814;SDS011;6472;52.328;13.070;2023-07-08T07:37:57;3.35;;;3.13;;
12814;SDS011;6472;52.328;13.070;2023-07-08T07:40:25;4.13;;;2.90;;
12814;SDS011;6472;52.328;13.070;2023-07-08T07:42:53;3.35;;;2.90;;
12814;SDS011;6472;52.328;13.070;2023-07-08T07:45:21;4.22;;;2.88;;
12814;SDS011;6472;52.328;13.070;2023-07-08T07:47:49;3.50;;;2.95;;
12814;SDS011;6472;52.328;13.070;2023-07-08T07:50:17;3.70;;;3.10;;
12814;SDS011;6472;52.328;13.070;2023-07-08T07:52:46;4.25;;;3.47;;
12814;SDS011;6472;52.328;13.070;2023-07-08T07:55:16;4.63;;;3.00;;
12814;SDS011;6472;52.328;13.070;2023-07-08T07:57:45;3.88;;;3.13;;
12814;SDS011;6472;52.328;13.070;2023-07-08T08:00:13;3.75;;;3.00;;
12814;SDS011;6472;52.328;13.070;2023-07-08T08:02:42;5.63;;;4.18;;
12814;SDS011;6472;52.328;13.070;2023-07-08T08:05:10;2.40;;;2.20;;
12814;SDS011;6472;52.328;13.070;2023-07-08T08:07:38;4.10;;;2.47;;
12814;SDS011;6472;52.328;13.070;2023-07-08T08:10:08;3.72;;;2.35;;
12814;SDS011;6472;52.328;13.070;2023-07-08T08:12:36;6.68;;;4.95;;
12814;SDS011;6472;52.328;13.070;2023-07-08T08:15:18;3.25;;;2.50;;
12814;SDS011;6472;52.328;13.070;2023-07-08T08:17:47;3.63;;;2.85;;
12814;SDS011;6472;52.328;13.070;2023-07-08T08:20:18;3.80;;;2.97;;
12814;SDS011;6472;52.328;13.070;2023-07-08T08:22:47;2.72;;;2.42;;
12814;SDS011;6472;52.328;13.070;2023-07-08T08:25:17;4.00;;;2.45;;
12814;SDS011;6472;52.328;13.070;2023-07-08T08:27:47;2.50;;;2.30;;
12814;SDS011;6472;52.328;13.070;2023-07-08T08:30:15;2.80;;;2.30;;
12814;SDS011;6472;52.328;13.070;2023-07-08T08:32:43;3.33;;;2.28;;
12814;SDS011;6472;52.328;13.070;2023-07-08T08:35:11;2.20;;;2.00;;
12814;SDS011;6472;52.328;13.070;2023-07-08T08:37:39;2.60;;;2.40;;
12814;SDS011;6472;52.328;13.070;2023-07-08T08:40:09;2.30;;;2.10;;
12814;SDS011;6472;52.328;13.070;2023-07-08T08:42:49;3.13;;;2.08;;
12814;SDS011;6472;52.328;13.070;2023-07-08T08:45:20;2.38;;;2.25;;
12814;SDS011;6472;52.328;13.070;2023-07-08T08:47:52;2.90;;;2.03;;
12814;SDS011;6472;52.328;13.070;2023-07-08T08:50:26;2.50;;;2.15;;
12814;SDS011;6472;52.328;13.070;2023-07-08T08:53:01;2.17;;;1.98;;
12814;SDS011;6472;52.328;13.070;2023-07-08T08:55:31;2.70;;;2.05;;
12814;SDS011;6472;52.328;13.070;2023-07-08T08:58:02;2.95;;;2.65;;
12814;SDS011;6472;52.328;13.070;2023-07-08T09:00:44;2.33;;;2.13;;
12814;SDS011;6472;52.328;13.070;2023-07-08T09:03:27;3.50;;;2.10;;
12814;SDS011;6472;52.328;13.070;2023-07-08T09:06:09;2.60;;;2.10;;
12814;SDS011;6472;52.328;13.070;2023-07-08T09:08:40;3.05;;;2.20;;
12814;SDS011;6472;52.328;13.070;2023-07-08T09:11:11;2.67;;;2.08;;
12814;SDS011;6472;52.328;13.070;2023-07-08T09:13:48;2.60;;;2.40;;
12814;SDS011;6472;52.328;13.070;2023-07-08T09:16:20;2.05;;;1.95;;
12814;SDS011;6472;52.328;13.070;2023-07-08T09:18:56;3.22;;;2.58;;
12814;SDS011;6472;52.328;13.070;2023-07-08T09:21:28;2.40;;;2.20;;
12814;SDS011;6472;52.328;13.070;2023-07-08T09:24:02;3.22;;;2.50;;
12814;SDS011;6472;52.328;13.070;2023-07-08T09:26:37;4.10;;;2.38;;
12814;SDS011;6472;52.328;13.070;2023-07-08T09:29:10;3.40;;;2.38;;
12814;SDS011;6472;52.328;13.070;2023-07-08T09:31:38;4.03;;;2.72;;
12814;SDS011;6472;52.328;13.070;2023-07-08T09:34:10;3.28;;;2.58;;
12814;SDS011;6472;52.328;13.070;2023-07-08T09:36:40;3.05;;;2.85;;
12814;SDS011;6472;52.328;13.070;2023-07-08T09:39:10;2.85;;;2.17;;
12814;SDS011;6472;52.328;13.070;2023-07-08T09:41:40;2.30;;;2.10;;
12814;SDS011;6472;52.328;13.070;2023-07-08T09:44:22;3.53;;;1.90;;
12814;SDS011;6472;52.328;13.070;2023-07-08T09:46:53;2.38;;;2.17;;
12814;SDS011;6472;52.328;13.070;2023-07-08T09:49:23;2.85;;;2.22;;
12814;SDS011;6472;52.328;13.070;2023-07-08T09:51:54;2.58;;;1.90;;
12814;SDS011;6472;52.328;13.070;2023-07-08T09:54:23;2.28;;;2.08;;
12814;SDS011;6472;52.328;13.070;2023-07-08T09:56:58;4.22;;;2.30;;
12814;SDS011;6472;52.328;13.070;2023-07-08T09:59:32;2.10;;;1.90;;
12814;SDS011;6472;52.328;13.070;2023-07-08T10:02:17;2.33;;;1.83;;
12814;SDS011;6472;52.328;13.070;2023-07-08T10:04:59;2.58;;;2.38;;
12814;SDS011;6472;52.328;13.070;2023-07-08T10:07:29;2.35;;;2.15;;
12814;SDS011;6472;52.328;13.070;2023-07-08T10:10:00;3.67;;;3.05;;
12814;SDS011;6472;52.328;13.070;2023-07-08T10:12:31;1.92;;;1.75;;
12814;SDS011;6472;52.328;13.070;2023-07-08T10:15:03;2.38;;;1.83;;
12814;SDS011;6472;52.328;13.070;2023-07-08T10:17:39;2.22;;;2.03;;
12814;SDS011;6472;52.328;13.070;2023-07-08T10:20:10;2.47;;;1.95;;
12814;SDS011;6472;52.328;13.070;2023-07-08T10:22:41;2.65;;;2.45;;
12814;SDS011;6472;52.328;13.070;2023-07-08T10:25:24;3.05;;;2.03;;
12814;SDS011;6472;52.328;13.070;2023-07-08T10:27:57;2.92;;;2.53;;
12814;SDS011;6472;52.328;13.070;2023-07-08T10:30:37;2.35;;;2.05;;
12814;SDS011;6472;52.328;13.070;2023-07-08T10:33:14;3.58;;;2.20;;
12814;SDS011;6472;52.328;13.070;2023-07-08T10:36:08;2.00;;;1.90;;
12814;SDS011;6472;52.328;13.070;2023-07-08T10:38:47;2.00;;;1.77;;
12814;SDS011;6472;52.328;13.070;2023-07-08T10:41:28;2.47;;;2.08;;
12814;SDS011;6472;52.328;13.070;2023-07-08T10:44:04;3.65;;;1.95;;
12814;SDS011;6472;52.328;13.070;2023-07-08T10:46:41;2.83;;;2.30;;
12814;SDS011;6472;52.328;13.070;2023-07-08T10:52:29;2.97;;;2.42;;
12814;SDS011;6472;52.328;13.070;2023-07-08T10:55:18;2.25;;;2.05;;
12814;SDS011;6472;52.328;13.070;2023-07-08T10:58:03;3.00;;;2.60;;
12814;SDS011;6472;52.328;13.070;2023-07-08T11:00:46;3.78;;;2.22;;
12814;SDS011;6472;52.328;13.070;2023-07-08T11:03:30;3.22;;;2.10;;
12814;SDS011;6472;52.328;13.070;2023-07-08T11:06:15;2.10;;;2.00;;
12814;SDS011;6472;52.328;13.070;2023-07-08T11:08:48;5.40;;;2.42;;
12814;SDS011;6472;52.328;13.070;2023-07-08T11:11:25;2.10;;;2.00;;
12814;SDS011;6472;52.328;13.070;2023-07-08T11:13:58;2.50;;;2.25;;
12814;SDS011;6472;52.328;13.070;2023-07-08T11:16:31;2.70;;;2.50;;
12814;SDS011;6472;52.328;13.070;2023-07-08T11:19:15;6.72;;;2.53;;
12814;SDS011;6472;52.328;13.070;2023-07-08T11:21:51;4.95;;;2.30;;
12814;SDS011;6472;52.328;13.070;2023-07-08T11:24:24;3.67;;;2.33;;
12814;SDS011;6472;52.328;13.070;2023-07-08T11:26:58;3.13;;;2.72;;
12814;SDS011;6472;52.328;13.070;2023-07-08T11:29:33;3.20;;;2.20;;
12814;SDS011;6472;52.328;13.070;2023-07-08T11:32:05;2.35;;;2.15;;
12814;SDS011;6472;52.328;13.070;2023-07-08T11:34:38;3.65;;;2.70;;
12814;SDS011;6472;52.328;13.070;2023-07-08T11:37:08;2.65;;;2.22;;
12814;SDS011;6472;52.328;13.070;2023-07-08T11:39:40;2.30;;;2.17;;
12814;SDS011;6472;52.328;13.070;2023-07-08T11:42:13;3.17;;;2.45;;
12814;SDS011;6472;52.328;13.070;2023-07-08T11:44:47;2.70;;;2.50;;
12814;SDS011;6472;52.328;13.070;2023-07-08T11:47:19;2.65;;;2.45;;
12814;SDS011;6472;52.328;13.070;2023-07-08T11:49:55;2.78;;;2.58;;
12814;SDS011;6472;52.328;13.070;2023-07-08T11:52:23;3.22;;;2.30;;
12814;SDS011;6472;52.328;13.070;2023-07-08T11:54:59;4.80;;;2.47;;
12814;SDS011;6472;52.328;13.070;2023-07-08T11:57:36;2.50;;;2.30;;
12814;SDS011;6472;52.328;13.070;2023-07-08T12:00:17;2.50;;;2.30;;
12814;SDS011;6472;52.328;13.070;2023-07-08T12:02:48;3.25;;;2.28;;
12814;SDS011;6472;52.328;13.070;2023-07-08T12:05:28;2.40;;;2.20;;
12814;SDS011;6472;52.328;13.070;2023-07-08T12:08:01;3.33;;;3.05;;
12814;SDS011;6472;52.328;13.070;2023-07-08T12:10:39;2.70;;;2.50;;
12814;SDS011;6472;52.328;13.070;2023-07-08T12:13:14;4.47;;;2.47;;
12814;SDS011;6472;52.328;13.070;2023-07-08T12:15:44;3.60;;;3.28;;
12814;SDS011;6472;52.328;13.070;2023-07-08T12:18:13;5.55;;;2.20;;
12814;SDS011;6472;52.328;13.070;2023-07-08T12:20:45;2.63;;;2.42;;
12814;SDS011;6472;52.328;13.070;2023-07-08T12:23:17;3.78;;;2.72;;
12814;SDS011;6472;52.328;13.070;2023-07-08T12:25:48;2.92;;;2.50;;
12814;SDS011;6472;52.328;13.070;2023-07-08T12:28:18;3.22;;;2.67;;
12814;SDS011;6472;52.328;13.070;2023-07-08T12:30:47;4.75;;;2.60;;
12814;SDS011;6472;52.328;13.070;2023-07-08T12:33:16;2.60;;;2.20;;
12814;SDS011;6472;52.328;13.070;2023-07-08T12:35:50;3.42;;;2.13;;
12814;SDS011;6472;52.328;13.070;2023-07-08T12:38:20;4.20;;;2.67;;
12814;SDS011;6472;52.328;13.070;2023-07-08T12:40:54;2.60;;;2.33;;
12814;SDS011;6472;52.328;13.070;2023-07-08T12:43:23;7.03;;;2.60;;
12814;SDS011;6472;52.328;13.070;2023-07-08T12:45:51;4.85;;;3.10;;
12814;SDS011;6472;52.328;13.070;2023-07-08T12:48:19;2.95;;;2.38;;
12814;SDS011;6472;52.328;13.070;2023-07-08T12:50:47;3.95;;;2.58;;
12814;SDS011;6472;52.328;13.070;2023-07-08T12:53:18;2.22;;;2.05;;
12814;SDS011;6472;52.328;13.070;2023-07-08T12:55:54;3.72;;;2.90;;
12814;SDS011;6472;52.328;13.070;2023-07-08T12:58:27;4.13;;;2.45;;
12814;SDS011;6472;52.328;13.070;2023-07-08T13:00:59;3.10;;;2.80;;
12814;SDS011;6472;52.328;13.070;2023-07-08T13:03:31;4.15;;;2.40;;
12814;SDS011;6472;52.328;13.070;2023-07-08T13:06:03;2.72;;;2.50;;
12814;SDS011;6472;52.328;13.070;2023-07-08T13:08:35;2.50;;;2.30;;
12814;SDS011;6472;52.328;13.070;2023-07-08T13:11:05;3.38;;;2.65;;
12814;SDS011;6472;52.328;13.070;2023-07-08T13:13:34;2.58;;;2.28;;
12814;SDS011;6472;52.328;13.070;2023-07-08T13:16:05;4.10;;;3.00;;
12814;SDS011;6472;52.328;13.070;2023-07-08T13:18:37;3.28;;;2.63;;
12814;SDS011;6472;52.328;13.070;2023-07-08T13:21:08;2.67;;;2.47;;
12814;SDS011;6472;52.328;13.070;2023-07-08T13:23:40;3.85;;;2.78;;
12814;SDS011;6472;52.328;13.070;2023-07-08T13:26:13;2.60;;;2.40;;
12814;SDS011;6472;52.328;13.070;2023-07-08T13:28:42;2.65;;;2.40;;
12814;SDS011;6472;52.328;13.070;2023-07-08T13:31:13;3.50;;;2.63;;
12814;SDS011;6472;52.328;13.070;2023-07-08T13:33:48;3.65;;;2.65;;
12814;SDS011;6472;52.328;13.070;2023-07-08T13:36:18;5.15;;;2.60;;
12814;SDS011;6472;52.328;13.070;2023-07-08T13:38:49;2.53;;;2.33;;
12814;SDS011;6472;52.328;13.070;2023-07-08T13:41:19;2.80;;;2.60;;
12814;SDS011;6472;52.328;13.070;2023-07-08T13:43:49;3.95;;;2.45;;
12814;SDS011;6472;52.328;13.070;2023-07-08T13:46:30;2.97;;;2.67;;
12814;SDS011;6472;52.328;13.070;2023-07-08T13:49:02;2.88;;;2.28;;
12814;SDS011;6472;52.328;13.070;2023-07-08T13:51:36;4.05;;;2.50;;
12814;SDS011;6472;52.328;13.070;2023-07-08T13:54:09;2.70;;;2.50;;
12814;SDS011;6472;52.328;13.070;2023-07-08T13:56:43;3.30;;;2.80;;
12814;SDS011;6472;52.328;13.070;2023-07-08T13:59:15;2.80;;;2.60;;
12814;SDS011;6472;52.328;13.070;2023-07-08T14:01:45;2.90;;;2.70;;
12814;SDS011;6472;52.328;13.070;2023-07-08T14:04:16;2.90;;;2.70;;
12814;SDS011;6472;52.328;13.070;2023-07-08T14:06:46;2.97;;;2.70;;
12814;SDS011;6472;52.328;13.070;2023-07-08T14:09:17;2.55;;;2.35;;
12814;SDS011;6472;52.328;13.070;2023-07-08T14:11:47;2.60;;;2.40;;
12814;SDS011;6472;52.328;13.070;2023-07-08T14:14:16;3.20;;;2.50;;
12814;SDS011;6472;52.328;13.070;2023-07-08T14:16:45;3.20;;;3.00;;
12814;SDS011;6472;52.328;13.070;2023-07-08T14:19:15;2.55;;;2.35;;
12814;SDS011;6472;52.328;13.070;2023-07-08T14:21:51;4.55;;;2.63;;
12814;SDS011;6472;52.328;13.070;2023-07-08T14:24:24;3.03;;;2.70;;
12814;SDS011;6472;52.328;13.070;2023-07-08T14:26:52;3.83;;;2.50;;
12814;SDS011;6472;52.328;13.070;2023-07-08T14:29:21;2.63;;;2.42;;
12814;SDS011;6472;52.328;13.070;2023-07-08T14:31:49;3.95;;;2.92;;
12814;SDS011;6472;52.328;13.070;2023-07-08T14:34:20;3.75;;;2.78;;
12814;SDS011;6472;52.328;13.070;2023-07-08T14:36:50;2.90;;;2.70;;
12814;SDS011;6472;52.328;13.070;2023-07-08T14:39:19;2.97;;;2.78;;
12814;SDS011;6472;52.328;13.070;2023-07-08T14:41:49;3.40;;;2.97;;
12814;SDS011;6472;52.328;13.070;2023-07-08T14:44:19;3.08;;;2.72;;
12814;SDS011;6472;52.328;13.070;2023-07-08T14:46:49;3.55;;;2.70;;
12814;SDS011;6472;52.328;13.070;2023-07-08T14:49:18;3.05;;;2.80;;
12814;SDS011;6472;52.328;13.070;2023-07-08T14:51:48;4.80;;;2.70;;
12814;SDS011;6472;52.328;13.070;2023-07-08T14:54:17;3.17;;;2.65;;
12814;SDS011;6472;52.328;13.070;2023-07-08T14:56:45;3.05;;;2.60;;
12814;SDS011;6472;52.328;13.070;2023-07-08T14:59:16;3.97;;;2.53;;
12814;SDS011;6472;52.328;13.070;2023-07-08T15:01:46;2.42;;;2.33;;
12814;SDS011;6472;52.328;13.070;2023-07-08T15:04:16;2.78;;;2.50;;
12814;SDS011;6472;52.328;13.070;2023-07-08T15:06:45;2.58;;;2.38;;
12814;SDS011;6472;52.328;13.070;2023-07-08T15:09:14;3.15;;;2.72;;
12814;SDS011;6472;52.328;13.070;2023-07-08T15:11:43;6.28;;;2.60;;
12814;SDS011;6472;52.328;13.070;2023-07-08T15:14:16;2.95;;;2.65;;